»·PEaware :: N122PT KBUR-KLAS

N122PT :: KBUR-KLAS

FLIGHT INFORMATION

Flight Status: Arrived
Operator: Privately registered:
United States
More flights under this callsign
Pilot: Ralph L. (1213)
Aircraft: Unknown
(LEG2)
More flights by this aircraft type
Origin: KBUR Bob Hope-Burbank
United States
Destination: KLAS Harry Reid Intl
United States
More flights between these airports :: More routes between these airports
Route: +VNY3 DAG CRESO4
File this flight plan on PilotEdge
Remarks: TEC Route practice
Altitude:
(Current/Filed)
11,000ft
Speed:
(Current/Filed)
220kts
Departed: 18-Aug-19 01:12 PM
Arrived: 18-Aug-19 02:09 PM
Distance/Time
Traveled:
194nm/0:57
Distance/Time
To Go:
Arrived

Flight Plot

Page will automatically refresh every two minutes.

Flight plan parsing failed; only flown route is shown


Map Options




Map Legend


Flown Route
Filed Route
Departure Airport
Arrival Airport
Navaid (VOR, NDB)
Fix

Horizontal Profiles

Position Reports

Time Latitude Longitude Heading Altitude Ground
Speed
18-Aug-19 12:48 34.200236 -118.363917 45 724ft 0kts
18-Aug-19 12:49 34.200237 -118.363916 45 724ft 0kts
18-Aug-19 12:49 34.200237 -118.363915 45 724ft 0kts
18-Aug-19 12:50 34.200238 -118.363915 46 724ft 0kts
18-Aug-19 12:52 34.200239 -118.363914 46 724ft 0kts
18-Aug-19 12:52 34.200239 -118.363913 46 724ft 0kts
18-Aug-19 12:53 34.200240 -118.363912 47 724ft 0kts
18-Aug-19 12:54 34.200240 -118.363912 47 724ft 0kts
18-Aug-19 12:55 34.200241 -118.363911 47 724ft 0kts
18-Aug-19 12:56 34.200241 -118.363911 47 724ft 0kts
18-Aug-19 12:57 34.200242 -118.363910 48 724ft 0kts
18-Aug-19 12:58 34.200242 -118.363909 48 724ft 0kts
18-Aug-19 12:59 34.200243 -118.363908 49 724ft 0kts
18-Aug-19 13:00 34.200243 -118.363908 49 724ft 0kts
18-Aug-19 13:01 34.200244 -118.363907 49 724ft 0kts
18-Aug-19 13:02 34.200244 -118.363906 50 724ft 0kts
18-Aug-19 13:03 34.200245 -118.363905 50 724ft 0kts
18-Aug-19 13:04 34.200245 -118.363904 50 724ft 0kts
18-Aug-19 13:05 34.200246 -118.363904 50 724ft 0kts
18-Aug-19 13:06 34.199966 -118.364071 252 724ft 4kts
18-Aug-19 13:07 34.198962 -118.365816 269 724ft 14kts
18-Aug-19 13:08 34.198799 -118.368952 193 724ft 6kts
18-Aug-19 13:09 34.198747 -118.368959 182 724ft 0kts
18-Aug-19 13:10 34.198747 -118.368959 182 724ft 0kts
18-Aug-19 13:11 34.197835 -118.366751 91 724ft 49kts
18-Aug-19 13:12 34.191949 -118.332658 131 1817ft 127kts
18-Aug-19 13:13 34.161212 -118.337652 226 3420ft 148kts
18-Aug-19 13:14 34.131865 -118.374039 225 4838ft 173kts
18-Aug-19 13:15 34.116892 -118.433489 297 5484ft 203kts
18-Aug-19 13:16 34.167023 -118.456765 355 6542ft 207kts
18-Aug-19 13:17 34.225644 -118.463388 359 7348ft 215kts
18-Aug-19 13:18 34.283817 -118.461719 1 8507ft 201kts
18-Aug-19 13:19 34.337848 -118.460966 1 9820ft 187kts
18-Aug-19 13:20 34.388769 -118.459847 8 11017ft 183kts
18-Aug-19 13:21 34.420381 -118.409638 71 11236ft 217kts
18-Aug-19 13:22 34.453701 -118.342154 53 10963ft 243kts
18-Aug-19 13:23 34.534354 -118.211763 53 10999ft 247kts
18-Aug-19 13:24 34.643480 -117.914073 82 11000ft 249kts
18-Aug-19 13:25 34.704378 -117.583345 72 10995ft 249kts
18-Aug-19 13:26 34.786250 -117.260937 72 10986ft 250kts
18-Aug-19 13:27 34.867922 -116.937137 72 10999ft 249kts
18-Aug-19 13:28 34.950336 -116.614481 71 10991ft 250kts
18-Aug-19 13:29 34.977321 -116.534881 62 10977ft 259kts
18-Aug-19 13:30 35.011229 -116.458598 59 10969ft 253kts
18-Aug-19 13:31 35.044525 -116.383767 62 10960ft 249kts
18-Aug-19 13:32 35.076031 -116.308810 60 10955ft 245kts
18-Aug-19 13:33 35.107972 -116.236026 61 10946ft 243kts
18-Aug-19 13:34 35.140416 -116.162442 60 10946ft 247kts
18-Aug-19 13:35 35.173239 -116.088022 62 10931ft 249kts
18-Aug-19 13:36 35.206032 -116.013655 61 10929ft 247kts
18-Aug-19 13:37 35.239075 -115.939282 62 10893ft 250kts
18-Aug-19 13:38 35.272473 -115.864544 58 10886ft 248kts
18-Aug-19 13:39 35.307234 -115.792406 52 10868ft 245kts
18-Aug-19 13:40 35.349488 -115.727112 46 10830ft 244kts
18-Aug-19 13:41 35.394628 -115.664850 44 10820ft 243kts
18-Aug-19 13:42 35.440064 -115.603875 44 10817ft 243kts
18-Aug-19 13:43 35.486020 -115.542267 45 10822ft 246kts
18-Aug-19 13:44 35.531770 -115.480925 44 10841ft 243kts
18-Aug-19 13:45 35.576744 -115.420774 45 10860ft 223kts
18-Aug-19 13:46 35.616402 -115.369341 44 10875ft 198kts
18-Aug-19 13:47 35.653925 -115.320056 45 10903ft 197kts
18-Aug-19 13:48 35.690835 -115.269461 46 10953ft 199kts
18-Aug-19 13:49 35.728741 -115.219016 47 10959ft 202kts
18-Aug-19 13:50 35.766858 -115.167616 47 10966ft 204kts
18-Aug-19 13:51 35.811674 -115.127178 33 10918ft 185kts
18-Aug-19 13:52 35.852556 -115.095512 32 11005ft 172kts
18-Aug-19 13:53 35.892375 -115.063110 33 10635ft 166kts
18-Aug-19 13:54 35.926464 -115.035432 32 10970ft 143kts
18-Aug-19 13:55 35.960674 -115.007992 33 10918ft 145kts
18-Aug-19 13:56 35.994251 -114.981028 31 10946ft 142kts
18-Aug-19 13:57 36.027141 -114.954793 32 11002ft 141kts
18-Aug-19 13:58 36.031344 -114.902099 101 9521ft 207kts
18-Aug-19 13:59 36.018351 -114.825128 100 6371ft 257kts
18-Aug-19 14:00 36.042608 -114.747769 21 5069ft 240kts
18-Aug-19 14:01 36.087217 -114.782886 265 4790ft 228kts
18-Aug-19 14:02 36.072316 -114.854658 269 4880ft 209kts
18-Aug-19 14:03 36.072103 -114.926638 273 4822ft 211kts
18-Aug-19 14:04 36.073276 -114.989224 273 4189ft 161kts
18-Aug-19 14:05 36.073994 -115.042206 271 3463ft 135kts
18-Aug-19 14:06 36.074072 -115.084500 270 2881ft 106kts
18-Aug-19 14:07 36.073727 -115.120312 268 2272ft 104kts
18-Aug-19 14:08 36.073668 -115.139127 275 2118ft 8kts
18-Aug-19 14:09 36.074639 -115.138576 58 2118ft 7kts
18-Aug-19 14:10 36.075527 -115.137842 3 2118ft 0kts
18-Aug-19 14:11 36.075529 -115.137842 3 2118ft 0kts
18-Aug-19 14:12 36.078267 -115.140924 270 2118ft 26kts
18-Aug-19 14:13 36.078784 -115.144650 357 2118ft 7kts

Navigation Log

Ident Type
Flight plan parsing failed, navigation log unavailable